Terminal Aerodrome Forecast
Issued by NWS Sioux Falls, SD

Home | Current Version | Previous Version | Text Only | Print | Product List | Glossary Off
Versions: 1 2 3 4 5 6 7 8 9 10 11 12 13 14

000
FTUS43 KFSD 020528
TAFHON
TAF
KHON 020528Z 0206/0306 14007KT P6SM SCT120
     FM020900 14005KT 6SM BR SCT025 BKN150
      TEMPO 0210/0214 5SM SHRA BKN025
     FM021400 12007KT P6SM BKN025
     FM021900 09005KT P6SM BKN035
     FM030300 17006KT P6SM BKN150=

USA.gov is the U.S. government's official web portal to all federal, state and local government web resources and services.